sensor_id;sensor_type;location;lat;lon;timestamp;P1;durP1;ratioP1;P2;durP2;ratioP2
9304;SDS011;4690;52.422;13.486;2022-11-10T00:06:10;3.77;;;2.10;;
9304;SDS011;4690;52.422;13.486;2022-11-10T00:08:35;3.63;;;2.00;;
9304;SDS011;4690;52.422;13.486;2022-11-10T00:11:05;4.03;;;2.40;;
9304;SDS011;4690;52.422;13.486;2022-11-10T00:13:33;3.60;;;2.40;;
9304;SDS011;4690;52.422;13.486;2022-11-10T00:16:21;4.20;;;2.40;;
9304;SDS011;4690;52.422;13.486;2022-11-10T00:19:06;2.40;;;2.13;;
9304;SDS011;4690;52.422;13.486;2022-11-10T00:21:32;4.70;;;2.50;;
9304;SDS011;4690;52.422;13.486;2022-11-10T00:23:58;3.00;;;2.03;;
9304;SDS011;4690;52.422;13.486;2022-11-10T00:26:24;3.27;;;2.40;;
9304;SDS011;4690;52.422;13.486;2022-11-10T00:28:49;3.23;;;2.43;;
9304;SDS011;4690;52.422;13.486;2022-11-10T00:31:15;5.27;;;2.70;;
9304;SDS011;4690;52.422;13.486;2022-11-10T00:33:41;4.57;;;2.50;;
9304;SDS011;4690;52.422;13.486;2022-11-10T00:36:08;4.00;;;2.47;;
9304;SDS011;4690;52.422;13.486;2022-11-10T00:38:34;5.97;;;2.53;;
9304;SDS011;4690;52.422;13.486;2022-11-10T00:41:00;3.30;;;2.60;;
9304;SDS011;4690;52.422;13.486;2022-11-10T00:43:27;5.10;;;2.33;;
9304;SDS011;4690;52.422;13.486;2022-11-10T00:45:54;4.57;;;2.37;;
9304;SDS011;4690;52.422;13.486;2022-11-10T00:48:20;4.40;;;2.40;;
9304;SDS011;4690;52.422;13.486;2022-11-10T00:50:46;3.53;;;2.33;;
9304;SDS011;4690;52.422;13.486;2022-11-10T00:53:12;5.13;;;2.30;;
9304;SDS011;4690;52.422;13.486;2022-11-10T00:55:41;5.13;;;2.40;;
9304;SDS011;4690;52.422;13.486;2022-11-10T00:58:07;2.30;;;2.10;;
9304;SDS011;4690;52.422;13.486;2022-11-10T01:00:33;5.50;;;2.47;;
9304;SDS011;4690;52.422;13.486;2022-11-10T01:02:58;2.90;;;2.30;;
9304;SDS011;4690;52.422;13.486;2022-11-10T01:05:26;3.87;;;2.70;;
9304;SDS011;4690;52.422;13.486;2022-11-10T01:07:53;4.33;;;2.67;;
9304;SDS011;4690;52.422;13.486;2022-11-10T01:10:20;5.80;;;2.37;;
9304;SDS011;4690;52.422;13.486;2022-11-10T01:12:46;5.03;;;2.37;;
9304;SDS011;4690;52.422;13.486;2022-11-10T01:15:12;4.13;;;2.33;;
9304;SDS011;4690;52.422;13.486;2022-11-10T01:17:38;4.83;;;2.63;;
9304;SDS011;4690;52.422;13.486;2022-11-10T01:20:03;4.00;;;2.70;;
9304;SDS011;4690;52.422;13.486;2022-11-10T01:22:32;4.87;;;2.77;;
9304;SDS011;4690;52.422;13.486;2022-11-10T01:24:58;4.87;;;2.90;;
9304;SDS011;4690;52.422;13.486;2022-11-10T01:27:24;4.37;;;2.63;;
9304;SDS011;4690;52.422;13.486;2022-11-10T01:29:50;3.70;;;2.70;;
9304;SDS011;4690;52.422;13.486;2022-11-10T01:32:16;5.27;;;2.10;;
9304;SDS011;4690;52.422;13.486;2022-11-10T01:34:41;3.40;;;2.37;;
9304;SDS011;4690;52.422;13.486;2022-11-10T01:37:07;3.17;;;2.00;;
9304;SDS011;4690;52.422;13.486;2022-11-10T01:39:33;3.07;;;2.00;;
9304;SDS011;4690;52.422;13.486;2022-11-10T01:41:59;5.17;;;2.20;;
9304;SDS011;4690;52.422;13.486;2022-11-10T01:44:25;4.60;;;2.10;;
9304;SDS011;4690;52.422;13.486;2022-11-10T01:46:50;3.43;;;2.00;;
9304;SDS011;4690;52.422;13.486;2022-11-10T01:49:17;3.77;;;2.10;;
9304;SDS011;4690;52.422;13.486;2022-11-10T01:52:03;4.97;;;2.27;;
9304;SDS011;4690;52.422;13.486;2022-11-10T01:54:40;4.23;;;2.80;;
9304;SDS011;4690;52.422;13.486;2022-11-10T01:57:12;7.63;;;2.30;;
9304;SDS011;4690;52.422;13.486;2022-11-10T01:59:44;3.77;;;2.50;;
9304;SDS011;4690;52.422;13.486;2022-11-10T02:02:36;3.67;;;2.57;;
9304;SDS011;4690;52.422;13.486;2022-11-10T02:05:21;4.47;;;2.30;;
9304;SDS011;4690;52.422;13.486;2022-11-10T02:07:48;4.03;;;2.27;;
9304;SDS011;4690;52.422;13.486;2022-11-10T02:10:16;5.93;;;2.50;;
9304;SDS011;4690;52.422;13.486;2022-11-10T02:12:45;4.50;;;2.63;;
9304;SDS011;4690;52.422;13.486;2022-11-10T02:15:13;5.57;;;2.37;;
9304;SDS011;4690;52.422;13.486;2022-11-10T02:17:42;6.10;;;2.53;;
9304;SDS011;4690;52.422;13.486;2022-11-10T02:20:11;2.90;;;1.97;;
9304;SDS011;4690;52.422;13.486;2022-11-10T02:22:43;3.47;;;2.43;;
9304;SDS011;4690;52.422;13.486;2022-11-10T02:25:09;3.80;;;2.40;;
9304;SDS011;4690;52.422;13.486;2022-11-10T02:27:43;4.13;;;2.70;;
9304;SDS011;4690;52.422;13.486;2022-11-10T02:30:09;4.23;;;2.73;;
9304;SDS011;4690;52.422;13.486;2022-11-10T02:32:36;7.83;;;2.80;;
9304;SDS011;4690;52.422;13.486;2022-11-10T02:35:02;4.80;;;2.40;;
9304;SDS011;4690;52.422;13.486;2022-11-10T02:37:29;6.10;;;2.50;;
9304;SDS011;4690;52.422;13.486;2022-11-10T02:39:55;5.63;;;2.43;;
9304;SDS011;4690;52.422;13.486;2022-11-10T02:42:21;4.03;;;2.30;;
9304;SDS011;4690;52.422;13.486;2022-11-10T02:44:46;4.87;;;2.60;;
9304;SDS011;4690;52.422;13.486;2022-11-10T02:47:12;3.83;;;2.27;;
9304;SDS011;4690;52.422;13.486;2022-11-10T02:49:38;5.30;;;2.30;;
9304;SDS011;4690;52.422;13.486;2022-11-10T02:52:04;6.43;;;2.23;;
9304;SDS011;4690;52.422;13.486;2022-11-10T02:54:29;3.97;;;2.17;;
9304;SDS011;4690;52.422;13.486;2022-11-10T02:56:55;3.17;;;2.00;;
9304;SDS011;4690;52.422;13.486;2022-11-10T02:59:21;4.43;;;2.30;;
9304;SDS011;4690;52.422;13.486;2022-11-10T03:01:47;3.57;;;2.13;;
9304;SDS011;4690;52.422;13.486;2022-11-10T03:04:12;3.73;;;2.00;;
9304;SDS011;4690;52.422;13.486;2022-11-10T03:06:38;6.17;;;2.40;;
9304;SDS011;4690;52.422;13.486;2022-11-10T03:09:04;5.03;;;2.17;;
9304;SDS011;4690;52.422;13.486;2022-11-10T03:11:29;5.83;;;2.60;;
9304;SDS011;4690;52.422;13.486;2022-11-10T03:13:55;5.13;;;2.27;;
9304;SDS011;4690;52.422;13.486;2022-11-10T03:16:21;4.70;;;2.50;;
9304;SDS011;4690;52.422;13.486;2022-11-10T03:18:47;4.57;;;2.17;;
9304;SDS011;4690;52.422;13.486;2022-11-10T03:21:12;8.00;;;2.53;;
9304;SDS011;4690;52.422;13.486;2022-11-10T03:23:38;3.77;;;2.03;;
9304;SDS011;4690;52.422;13.486;2022-11-10T03:26:06;4.93;;;2.20;;
9304;SDS011;4690;52.422;13.486;2022-11-10T03:28:32;4.37;;;2.53;;
9304;SDS011;4690;52.422;13.486;2022-11-10T03:30:58;5.03;;;2.30;;
9304;SDS011;4690;52.422;13.486;2022-11-10T03:33:24;4.47;;;2.27;;
9304;SDS011;4690;52.422;13.486;2022-11-10T03:35:50;6.77;;;2.77;;
9304;SDS011;4690;52.422;13.486;2022-11-10T03:38:16;5.77;;;2.30;;
9304;SDS011;4690;52.422;13.486;2022-11-10T03:40:42;5.03;;;2.30;;
9304;SDS011;4690;52.422;13.486;2022-11-10T03:43:07;5.60;;;2.53;;
9304;SDS011;4690;52.422;13.486;2022-11-10T03:45:36;7.90;;;2.53;;
9304;SDS011;4690;52.422;13.486;2022-11-10T03:48:01;3.87;;;2.50;;
9304;SDS011;4690;52.422;13.486;2022-11-10T03:50:27;5.23;;;2.23;;
9304;SDS011;4690;52.422;13.486;2022-11-10T03:52:53;5.27;;;2.33;;
9304;SDS011;4690;52.422;13.486;2022-11-10T03:55:19;4.17;;;2.47;;
9304;SDS011;4690;52.422;13.486;2022-11-10T03:57:44;5.47;;;3.00;;
9304;SDS011;4690;52.422;13.486;2022-11-10T04:00:11;6.37;;;2.50;;
9304;SDS011;4690;52.422;13.486;2022-11-10T04:02:38;5.30;;;2.20;;
9304;SDS011;4690;52.422;13.486;2022-11-10T04:05:04;5.20;;;2.30;;
9304;SDS011;4690;52.422;13.486;2022-11-10T04:07:57;4.63;;;2.40;;
9304;SDS011;4690;52.422;13.486;2022-11-10T04:10:42;4.13;;;2.47;;
9304;SDS011;4690;52.422;13.486;2022-11-10T04:13:09;5.80;;;2.30;;
9304;SDS011;4690;52.422;13.486;2022-11-10T04:15:54;4.40;;;2.37;;
9304;SDS011;4690;52.422;13.486;2022-11-10T04:18:20;6.50;;;2.37;;
9304;SDS011;4690;52.422;13.486;2022-11-10T04:20:49;4.93;;;2.33;;
9304;SDS011;4690;52.422;13.486;2022-11-10T04:23:21;5.13;;;2.60;;
9304;SDS011;4690;52.422;13.486;2022-11-10T04:25:52;6.77;;;2.50;;
9304;SDS011;4690;52.422;13.486;2022-11-10T04:28:37;4.43;;;2.30;;
9304;SDS011;4690;52.422;13.486;2022-11-10T04:31:04;6.07;;;2.50;;
9304;SDS011;4690;52.422;13.486;2022-11-10T04:33:30;5.93;;;2.77;;
9304;SDS011;4690;52.422;13.486;2022-11-10T04:35:56;7.33;;;2.50;;
9304;SDS011;4690;52.422;13.486;2022-11-10T04:38:22;4.93;;;2.47;;
9304;SDS011;4690;52.422;13.486;2022-11-10T04:40:48;4.77;;;2.50;;
9304;SDS011;4690;52.422;13.486;2022-11-10T04:43:13;5.50;;;2.53;;
9304;SDS011;4690;52.422;13.486;2022-11-10T04:45:39;4.07;;;2.40;;
9304;SDS011;4690;52.422;13.486;2022-11-10T04:48:05;5.33;;;2.70;;
9304;SDS011;4690;52.422;13.486;2022-11-10T04:50:30;5.80;;;2.63;;
9304;SDS011;4690;52.422;13.486;2022-11-10T04:52:56;6.77;;;2.70;;
9304;SDS011;4690;52.422;13.486;2022-11-10T04:55:22;4.70;;;2.50;;
9304;SDS011;4690;52.422;13.486;2022-11-10T04:57:48;5.77;;;2.67;;
9304;SDS011;4690;52.422;13.486;2022-11-10T05:00:14;4.07;;;2.47;;
9304;SDS011;4690;52.422;13.486;2022-11-10T05:02:40;8.30;;;2.87;;
9304;SDS011;4690;52.422;13.486;2022-11-10T05:05:06;5.60;;;2.60;;
9304;SDS011;4690;52.422;13.486;2022-11-10T05:07:32;5.70;;;2.47;;
9304;SDS011;4690;52.422;13.486;2022-11-10T05:09:58;6.67;;;2.67;;
9304;SDS011;4690;52.422;13.486;2022-11-10T05:12:24;5.67;;;2.70;;
9304;SDS011;4690;52.422;13.486;2022-11-10T05:14:50;5.17;;;2.60;;
9304;SDS011;4690;52.422;13.486;2022-11-10T05:17:15;5.83;;;2.63;;
9304;SDS011;4690;52.422;13.486;2022-11-10T05:19:41;5.87;;;2.70;;
9304;SDS011;4690;52.422;13.486;2022-11-10T05:22:07;7.63;;;2.80;;
9304;SDS011;4690;52.422;13.486;2022-11-10T05:24:32;6.57;;;2.80;;
9304;SDS011;4690;52.422;13.486;2022-11-10T05:26:58;3.60;;;2.27;;
9304;SDS011;4690;52.422;13.486;2022-11-10T05:29:24;7.43;;;2.87;;
9304;SDS011;4690;52.422;13.486;2022-11-10T05:31:49;3.27;;;2.40;;
9304;SDS011;4690;52.422;13.486;2022-11-10T05:34:15;2.77;;;2.33;;
9304;SDS011;4690;52.422;13.486;2022-11-10T05:36:41;4.10;;;2.50;;
9304;SDS011;4690;52.422;13.486;2022-11-10T05:39:07;3.83;;;2.43;;
9304;SDS011;4690;52.422;13.486;2022-11-10T05:41:32;5.27;;;2.60;;
9304;SDS011;4690;52.422;13.486;2022-11-10T05:43:58;4.40;;;2.47;;
9304;SDS011;4690;52.422;13.486;2022-11-10T05:46:24;5.00;;;2.33;;
9304;SDS011;4690;52.422;13.486;2022-11-10T05:48:50;7.67;;;2.90;;
9304;SDS011;4690;52.422;13.486;2022-11-10T05:51:15;6.90;;;2.70;;
9304;SDS011;4690;52.422;13.486;2022-11-10T05:53:41;7.83;;;3.20;;
9304;SDS011;4690;52.422;13.486;2022-11-10T05:56:07;6.33;;;3.30;;
9304;SDS011;4690;52.422;13.486;2022-11-10T05:58:32;5.47;;;3.00;;
9304;SDS011;4690;52.422;13.486;2022-11-10T06:00:58;4.50;;;2.90;;
9304;SDS011;4690;52.422;13.486;2022-11-10T06:03:24;4.60;;;2.70;;
9304;SDS011;4690;52.422;13.486;2022-11-10T06:05:50;5.80;;;3.07;;
9304;SDS011;4690;52.422;13.486;2022-11-10T06:08:16;5.27;;;3.00;;
9304;SDS011;4690;52.422;13.486;2022-11-10T06:10:42;4.40;;;2.60;;
9304;SDS011;4690;52.422;13.486;2022-11-10T06:13:10;4.67;;;2.87;;
9304;SDS011;4690;52.422;13.486;2022-11-10T06:15:36;5.43;;;2.80;;
9304;SDS011;4690;52.422;13.486;2022-11-10T06:18:02;3.43;;;2.60;;
9304;SDS011;4690;52.422;13.486;2022-11-10T06:20:28;4.83;;;2.97;;
9304;SDS011;4690;52.422;13.486;2022-11-10T06:22:58;7.83;;;3.90;;
9304;SDS011;4690;52.422;13.486;2022-11-10T06:25:27;5.90;;;3.50;;
9304;SDS011;4690;52.422;13.486;2022-11-10T06:27:56;6.90;;;4.60;;
9304;SDS011;4690;52.422;13.486;2022-11-10T06:30:22;10.30;;;5.80;;
9304;SDS011;4690;52.422;13.486;2022-11-10T06:32:49;12.43;;;8.00;;
9304;SDS011;4690;52.422;13.486;2022-11-10T06:35:15;9.63;;;6.77;;
9304;SDS011;4690;52.422;13.486;2022-11-10T06:37:41;8.80;;;5.20;;
9304;SDS011;4690;52.422;13.486;2022-11-10T06:40:07;6.87;;;4.30;;
9304;SDS011;4690;52.422;13.486;2022-11-10T06:42:36;6.83;;;4.87;;
9304;SDS011;4690;52.422;13.486;2022-11-10T06:45:02;7.17;;;4.90;;
9304;SDS011;4690;52.422;13.486;2022-11-10T06:47:29;5.27;;;3.97;;
9304;SDS011;4690;52.422;13.486;2022-11-10T06:49:55;6.87;;;4.50;;
9304;SDS011;4690;52.422;13.486;2022-11-10T06:52:21;4.73;;;4.23;;
9304;SDS011;4690;52.422;13.486;2022-11-10T06:54:47;8.90;;;4.87;;
9304;SDS011;4690;52.422;13.486;2022-11-10T06:57:13;5.73;;;4.70;;
9304;SDS011;4690;52.422;13.486;2022-11-10T06:59:39;7.97;;;5.03;;
9304;SDS011;4690;52.422;13.486;2022-11-10T07:02:04;8.00;;;4.70;;
9304;SDS011;4690;52.422;13.486;2022-11-10T07:04:41;6.27;;;4.80;;
9304;SDS011;4690;52.422;13.486;2022-11-10T07:07:07;7.00;;;4.73;;
9304;SDS011;4690;52.422;13.486;2022-11-10T07:09:34;7.00;;;4.67;;
9304;SDS011;4690;52.422;13.486;2022-11-10T07:11:59;6.23;;;4.03;;
9304;SDS011;4690;52.422;13.486;2022-11-10T07:14:25;7.33;;;4.70;;
9304;SDS011;4690;52.422;13.486;2022-11-10T07:16:51;7.37;;;4.67;;
9304;SDS011;4690;52.422;13.486;2022-11-10T07:19:16;8.17;;;4.47;;
9304;SDS011;4690;52.422;13.486;2022-11-10T07:21:42;6.33;;;3.80;;
9304;SDS011;4690;52.422;13.486;2022-11-10T07:24:08;9.27;;;3.50;;
9304;SDS011;4690;52.422;13.486;2022-11-10T07:26:34;8.50;;;4.20;;
9304;SDS011;4690;52.422;13.486;2022-11-10T07:28:59;8.10;;;3.33;;
9304;SDS011;4690;52.422;13.486;2022-11-10T07:31:25;10.13;;;3.50;;
9304;SDS011;4690;52.422;13.486;2022-11-10T07:33:51;6.03;;;3.47;;
9304;SDS011;4690;52.422;13.486;2022-11-10T07:36:17;6.67;;;3.20;;
9304;SDS011;4690;52.422;13.486;2022-11-10T07:38:42;8.20;;;3.40;;
9304;SDS011;4690;52.422;13.486;2022-11-10T07:41:08;7.07;;;3.17;;
9304;SDS011;4690;52.422;13.486;2022-11-10T07:43:34;7.50;;;3.30;;
9304;SDS011;4690;52.422;13.486;2022-11-10T07:46:00;10.53;;;3.57;;
9304;SDS011;4690;52.422;13.486;2022-11-10T07:48:26;11.30;;;3.90;;
9304;SDS011;4690;52.422;13.486;2022-11-10T07:50:51;6.73;;;3.40;;
9304;SDS011;4690;52.422;13.486;2022-11-10T07:53:18;6.40;;;3.03;;
9304;SDS011;4690;52.422;13.486;2022-11-10T07:55:45;8.67;;;3.10;;
9304;SDS011;4690;52.422;13.486;2022-11-10T07:58:12;7.13;;;3.17;;
9304;SDS011;4690;52.422;13.486;2022-11-10T08:00:41;8.87;;;3.30;;
9304;SDS011;4690;52.422;13.486;2022-11-10T08:03:12;10.77;;;3.70;;
9304;SDS011;4690;52.422;13.486;2022-11-10T08:05:42;8.50;;;3.30;;
9304;SDS011;4690;52.422;13.486;2022-11-10T08:08:08;12.63;;;3.70;;
9304;SDS011;4690;52.422;13.486;2022-11-10T08:10:35;9.53;;;3.70;;
9304;SDS011;4690;52.422;13.486;2022-11-10T08:13:03;6.47;;;3.27;;
9304;SDS011;4690;52.422;13.486;2022-11-10T08:15:32;8.40;;;3.17;;
9304;SDS011;4690;52.422;13.486;2022-11-10T08:20:46;11.17;;;2.83;;
9304;SDS011;4690;52.422;13.486;2022-11-10T08:23:12;10.60;;;3.13;;
9304;SDS011;4690;52.422;13.486;2022-11-10T08:25:39;10.13;;;3.20;;
9304;SDS011;4690;52.422;13.486;2022-11-10T08:28:06;6.13;;;2.90;;
9304;SDS011;4690;52.422;13.486;2022-11-10T08:30:37;7.50;;;3.00;;
9304;SDS011;4690;52.422;13.486;2022-11-10T08:33:06;9.07;;;3.23;;
9304;SDS011;4690;52.422;13.486;2022-11-10T08:35:35;5.70;;;2.43;;
9304;SDS011;4690;52.422;13.486;2022-11-10T08:38:08;5.97;;;2.80;;
9304;SDS011;4690;52.422;13.486;2022-11-10T08:40:43;12.67;;;3.47;;
9304;SDS011;4690;52.422;13.486;2022-11-10T08:43:10;7.23;;;3.07;;
9304;SDS011;4690;52.422;13.486;2022-11-10T08:45:38;6.83;;;2.70;;
9304;SDS011;4690;52.422;13.486;2022-11-10T08:48:07;6.83;;;2.70;;
9304;SDS011;4690;52.422;13.486;2022-11-10T08:50:36;10.73;;;2.87;;
9304;SDS011;4690;52.422;13.486;2022-11-10T08:53:04;8.10;;;2.67;;
9304;SDS011;4690;52.422;13.486;2022-11-10T08:55:36;9.13;;;3.03;;
9304;SDS011;4690;52.422;13.486;2022-11-10T08:58:03;7.33;;;3.10;;
9304;SDS011;4690;52.422;13.486;2022-11-10T09:00:30;5.57;;;2.60;;
9304;SDS011;4690;52.422;13.486;2022-11-10T09:03:13;10.03;;;3.27;;
9304;SDS011;4690;52.422;13.486;2022-11-10T09:05:43;6.83;;;3.37;;
9304;SDS011;4690;52.422;13.486;2022-11-10T09:08:11;8.83;;;3.03;;
9304;SDS011;4690;52.422;13.486;2022-11-10T09:10:41;7.80;;;3.00;;
9304;SDS011;4690;52.422;13.486;2022-11-10T09:13:11;8.13;;;2.80;;
9304;SDS011;4690;52.422;13.486;2022-11-10T09:15:40;7.67;;;3.33;;
9304;SDS011;4690;52.422;13.486;2022-11-10T09:18:08;8.53;;;3.23;;
9304;SDS011;4690;52.422;13.486;2022-11-10T09:20:36;11.67;;;3.37;;
9304;SDS011;4690;52.422;13.486;2022-11-10T09:23:06;6.73;;;3.00;;
9304;SDS011;4690;52.422;13.486;2022-11-10T09:25:38;8.07;;;3.13;;
9304;SDS011;4690;52.422;13.486;2022-11-10T09:28:04;5.70;;;3.07;;
9304;SDS011;4690;52.422;13.486;2022-11-10T09:30:39;6.07;;;3.23;;
9304;SDS011;4690;52.422;13.486;2022-11-10T09:33:05;10.80;;;3.60;;
9304;SDS011;4690;52.422;13.486;2022-11-10T09:35:33;9.17;;;3.30;;
9304;SDS011;4690;52.422;13.486;2022-11-10T09:37:59;9.70;;;3.40;;
9304;SDS011;4690;52.422;13.486;2022-11-10T09:40:39;9.50;;;3.40;;
9304;SDS011;4690;52.422;13.486;2022-11-10T09:46:36;11.27;;;3.90;;
9304;SDS011;4690;52.422;13.486;2022-11-10T09:52:21;9.17;;;3.67;;
9304;SDS011;4690;52.422;13.486;2022-11-10T09:54:56;5.37;;;3.23;;
9304;SDS011;4690;52.422;13.486;2022-11-10T09:57:55;6.87;;;3.13;;
9304;SDS011;4690;52.422;13.486;2022-11-10T10:00:22;10.75;;;3.05;;
9304;SDS011;4690;52.422;13.486;2022-11-10T10:02:55;9.48;;;3.67;;
9304;SDS011;4690;52.422;13.486;2022-11-10T10:08:25;6.57;;;3.60;;
9304;SDS011;4690;52.422;13.486;2022-11-10T10:11:16;10.48;;;3.20;;
9304;SDS011;4690;52.422;13.486;2022-11-10T10:20:00;9.98;;;3.65;;
9304;SDS011;4690;52.422;13.486;2022-11-10T10:25:30;12.00;;;3.47;;
9304;SDS011;4690;52.422;13.486;2022-11-10T10:27:59;7.63;;;3.30;;
9304;SDS011;4690;52.422;13.486;2022-11-10T10:30:44;11.32;;;3.40;;
9304;SDS011;4690;52.422;13.486;2022-11-10T10:33:14;7.75;;;3.58;;
9304;SDS011;4690;52.422;13.486;2022-11-10T10:35:47;10.07;;;3.10;;
9304;SDS011;4690;52.422;13.486;2022-11-10T10:40:47;10.90;;;3.40;;
9304;SDS011;4690;52.422;13.486;2022-11-10T10:43:17;11.38;;;3.70;;
9304;SDS011;4690;52.422;13.486;2022-11-10T10:45:43;7.63;;;3.28;;
9304;SDS011;4690;52.422;13.486;2022-11-10T10:48:26;8.52;;;3.08;;
9304;SDS011;4690;52.422;13.486;2022-11-10T10:50:53;8.20;;;2.95;;
9304;SDS011;4690;52.422;13.486;2022-11-10T10:53:20;5.88;;;2.85;;
9304;SDS011;4690;52.422;13.486;2022-11-10T10:55:53;8.80;;;2.97;;
9304;SDS011;4690;52.422;13.486;2022-11-10T10:58:52;7.00;;;3.10;;
9304;SDS011;4690;52.422;13.486;2022-11-10T11:01:29;8.70;;;3.00;;
9304;SDS011;4690;52.422;13.486;2022-11-10T11:03:58;8.55;;;2.95;;
9304;SDS011;4690;52.422;13.486;2022-11-10T11:06:54;9.63;;;3.20;;
9304;SDS011;4690;52.422;13.486;2022-11-10T11:09:25;9.85;;;3.10;;
9304;SDS011;4690;52.422;13.486;2022-11-10T11:12:25;7.03;;;3.10;;
9304;SDS011;4690;52.422;13.486;2022-11-10T11:15:11;12.18;;;3.28;;
9304;SDS011;4690;52.422;13.486;2022-11-10T11:17:54;11.38;;;3.47;;
9304;SDS011;4690;52.422;13.486;2022-11-10T11:20:28;8.63;;;3.35;;
9304;SDS011;4690;52.422;13.486;2022-11-10T11:41:22;10.80;;;3.25;;
9304;SDS011;4690;52.422;13.486;2022-11-10T11:50:26;7.22;;;2.90;;
9304;SDS011;4690;52.422;13.486;2022-11-10T11:53:15;7.63;;;2.70;;
9304;SDS011;4690;52.422;13.486;2022-11-10T11:56:09;8.05;;;3.10;;
9304;SDS011;4690;52.422;13.486;2022-11-10T11:58:56;8.82;;;2.72;;
9304;SDS011;4690;52.422;13.486;2022-11-10T12:04:44;6.55;;;2.65;;
9304;SDS011;4690;52.422;13.486;2022-11-10T12:07:51;5.22;;;2.72;;
9304;SDS011;4690;52.422;13.486;2022-11-10T12:10:43;8.13;;;2.45;;
9304;SDS011;4690;52.422;13.486;2022-11-10T12:14:10;6.97;;;2.55;;
9304;SDS011;4690;52.422;13.486;2022-11-10T12:17:10;7.90;;;2.92;;
9304;SDS011;4690;52.422;13.486;2022-11-10T12:19:53;8.73;;;2.70;;
9304;SDS011;4690;52.422;13.486;2022-11-10T12:25:20;9.88;;;2.70;;
9304;SDS011;4690;52.422;13.486;2022-11-10T12:27:58;8.63;;;2.88;;
9304;SDS011;4690;52.422;13.486;2022-11-10T12:30:41;11.27;;;2.97;;
9304;SDS011;4690;52.422;13.486;2022-11-10T12:33:11;10.05;;;3.03;;
9304;SDS011;4690;52.422;13.486;2022-11-10T12:35:58;6.72;;;2.67;;
9304;SDS011;4690;52.422;13.486;2022-11-10T12:41:38;6.13;;;2.63;;
9304;SDS011;4690;52.422;13.486;2022-11-10T12:46:52;6.35;;;2.78;;
9304;SDS011;4690;52.422;13.486;2022-11-10T12:49:36;7.10;;;2.90;;
9304;SDS011;4690;52.422;13.486;2022-11-10T12:52:17;7.93;;;2.70;;
9304;SDS011;4690;52.422;13.486;2022-11-10T12:54:57;8.45;;;3.10;;
9304;SDS011;4690;52.422;13.486;2022-11-10T12:57:25;9.27;;;3.08;;
9304;SDS011;4690;52.422;13.486;2022-11-10T13:00:00;8.43;;;2.60;;
9304;SDS011;4690;52.422;13.486;2022-11-10T13:02:39;8.35;;;2.38;;
9304;SDS011;4690;52.422;13.486;2022-11-10T13:07:49;8.80;;;2.70;;
9304;SDS011;4690;52.422;13.486;2022-11-10T13:10:53;5.28;;;2.53;;
9304;SDS011;4690;52.422;13.486;2022-11-10T13:13:46;8.18;;;2.83;;
9304;SDS011;4690;52.422;13.486;2022-11-10T13:19:05;8.38;;;2.60;;
9304;SDS011;4690;52.422;13.486;2022-11-10T13:24:20;7.13;;;2.60;;
9304;SDS011;4690;52.422;13.486;2022-11-10T13:26:59;4.95;;;2.50;;
9304;SDS011;4690;52.422;13.486;2022-11-10T13:34:35;5.95;;;2.60;;
9304;SDS011;4690;52.422;13.486;2022-11-10T13:37:41;5.13;;;2.47;;
9304;SDS011;4690;52.422;13.486;2022-11-10T13:43:26;6.10;;;2.40;;
9304;SDS011;4690;52.422;13.486;2022-11-10T13:50:42;8.02;;;2.53;;
9304;SDS011;4690;52.422;13.486;2022-11-10T13:59:49;11.55;;;2.63;;
9304;SDS011;4690;52.422;13.486;2022-11-10T14:07:56;7.13;;;2.88;;
9304;SDS011;4690;52.422;13.486;2022-11-10T14:16:11;10.32;;;2.50;;
9304;SDS011;4690;52.422;13.486;2022-11-10T14:18:49;5.40;;;2.55;;
9304;SDS011;4690;52.422;13.486;2022-11-10T14:21:38;9.15;;;2.63;;
9304;SDS011;4690;52.422;13.486;2022-11-10T14:24:20;8.98;;;2.80;;
9304;SDS011;4690;52.422;13.486;2022-11-10T14:26:57;5.15;;;2.30;;
9304;SDS011;4690;52.422;13.486;2022-11-10T14:29:30;6.95;;;2.47;;
9304;SDS011;4690;52.422;13.486;2022-11-10T14:34:50;4.55;;;2.28;;
9304;SDS011;4690;52.422;13.486;2022-11-10T14:37:26;6.22;;;2.80;;
9304;SDS011;4690;52.422;13.486;2022-11-10T14:39:54;10.95;;;2.88;;
9304;SDS011;4690;52.422;13.486;2022-11-10T14:42:28;14.52;;;3.28;;
9304;SDS011;4690;52.422;13.486;2022-11-10T14:45:04;6.85;;;2.67;;
9304;SDS011;4690;52.422;13.486;2022-11-10T14:47:31;7.28;;;2.88;;
9304;SDS011;4690;52.422;13.486;2022-11-10T14:52:40;4.93;;;2.50;;
9304;SDS011;4690;52.422;13.486;2022-11-10T14:58:11;4.97;;;2.75;;
9304;SDS011;4690;52.422;13.486;2022-11-10T15:00:51;6.05;;;2.70;;
9304;SDS011;4690;52.422;13.486;2022-11-10T15:03:23;9.20;;;2.70;;
9304;SDS011;4690;52.422;13.486;2022-11-10T15:06:05;6.20;;;2.92;;
9304;SDS011;4690;52.422;13.486;2022-11-10T15:08:36;7.07;;;2.67;;
9304;SDS011;4690;52.422;13.486;2022-11-10T15:11:04;5.88;;;2.50;;
9304;SDS011;4690;52.422;13.486;2022-11-10T15:18:53;6.20;;;3.00;;
9304;SDS011;4690;52.422;13.486;2022-11-10T15:21:25;9.25;;;2.60;;
9304;SDS011;4690;52.422;13.486;2022-11-10T15:23:59;8.50;;;2.67;;
9304;SDS011;4690;52.422;13.486;2022-11-10T15:26:30;8.48;;;2.70;;
9304;SDS011;4690;52.422;13.486;2022-11-10T15:29:04;7.53;;;2.70;;
9304;SDS011;4690;52.422;13.486;2022-11-10T15:31:31;10.20;;;2.77;;
9304;SDS011;4690;52.422;13.486;2022-11-10T15:34:01;8.50;;;2.70;;
9304;SDS011;4690;52.422;13.486;2022-11-10T15:36:30;4.77;;;2.60;;
9304;SDS011;4690;52.422;13.486;2022-11-10T15:39:15;5.90;;;2.63;;
9304;SDS011;4690;52.422;13.486;2022-11-10T15:41:45;7.40;;;3.10;;
9304;SDS011;4690;52.422;13.486;2022-11-10T15:44:13;8.38;;;3.30;;
9304;SDS011;4690;52.422;13.486;2022-11-10T15:46:45;6.00;;;3.43;;
9304;SDS011;4690;52.422;13.486;2022-11-10T15:49:24;5.57;;;3.13;;
9304;SDS011;4690;52.422;13.486;2022-11-10T15:51:55;5.50;;;3.03;;
9304;SDS011;4690;52.422;13.486;2022-11-10T15:54:25;6.67;;;3.97;;
9304;SDS011;4690;52.422;13.486;2022-11-10T15:56:57;7.93;;;4.80;;
9304;SDS011;4690;52.422;13.486;2022-11-10T15:59:22;8.63;;;4.03;;
9304;SDS011;4690;52.422;13.486;2022-11-10T16:01:48;9.33;;;4.10;;
9304;SDS011;4690;52.422;13.486;2022-11-10T16:04:15;7.00;;;3.73;;
9304;SDS011;4690;52.422;13.486;2022-11-10T16:06:41;6.60;;;3.40;;
9304;SDS011;4690;52.422;13.486;2022-11-10T16:09:09;6.83;;;3.60;;
9304;SDS011;4690;52.422;13.486;2022-11-10T16:11:37;5.97;;;3.33;;
9304;SDS011;4690;52.422;13.486;2022-11-10T16:14:14;6.77;;;3.57;;
9304;SDS011;4690;52.422;13.486;2022-11-10T16:16:41;5.17;;;3.20;;
9304;SDS011;4690;52.422;13.486;2022-11-10T16:19:09;7.30;;;3.30;;
9304;SDS011;4690;52.422;13.486;2022-11-10T16:21:36;7.40;;;3.77;;
9304;SDS011;4690;52.422;13.486;2022-11-10T16:24:02;4.27;;;3.47;;
9304;SDS011;4690;52.422;13.486;2022-11-10T16:26:28;5.83;;;3.37;;
9304;SDS011;4690;52.422;13.486;2022-11-10T16:28:55;11.00;;;3.63;;
9304;SDS011;4690;52.422;13.486;2022-11-10T16:31:21;6.83;;;3.73;;
9304;SDS011;4690;52.422;13.486;2022-11-10T16:33:47;4.73;;;3.50;;
9304;SDS011;4690;52.422;13.486;2022-11-10T16:36:18;11.00;;;8.07;;
9304;SDS011;4690;52.422;13.486;2022-11-10T16:38:57;10.50;;;7.27;;
9304;SDS011;4690;52.422;13.486;2022-11-10T16:41:27;10.77;;;6.27;;
9304;SDS011;4690;52.422;13.486;2022-11-10T16:43:53;9.97;;;5.40;;
9304;SDS011;4690;52.422;13.486;2022-11-10T16:46:23;6.67;;;4.37;;
9304;SDS011;4690;52.422;13.486;2022-11-10T16:48:53;6.27;;;3.80;;
9304;SDS011;4690;52.422;13.486;2022-11-10T16:51:34;7.97;;;4.03;;
9304;SDS011;4690;52.422;13.486;2022-11-10T16:54:04;7.40;;;3.77;;
9304;SDS011;4690;52.422;13.486;2022-11-10T16:56:30;6.17;;;4.07;;
9304;SDS011;4690;52.422;13.486;2022-11-10T16:58:56;8.03;;;4.50;;
9304;SDS011;4690;52.422;13.486;2022-11-10T17:01:22;8.43;;;4.80;;
9304;SDS011;4690;52.422;13.486;2022-11-10T17:03:56;9.73;;;5.50;;
9304;SDS011;4690;52.422;13.486;2022-11-10T17:06:25;7.33;;;5.20;;
9304;SDS011;4690;52.422;13.486;2022-11-10T17:08:53;9.57;;;5.00;;
9304;SDS011;4690;52.422;13.486;2022-11-10T17:11:24;6.90;;;4.80;;
9304;SDS011;4690;52.422;13.486;2022-11-10T17:13:50;8.67;;;5.03;;
9304;SDS011;4690;52.422;13.486;2022-11-10T17:16:24;7.97;;;4.87;;
9304;SDS011;4690;52.422;13.486;2022-11-10T17:18:56;9.20;;;5.10;;